Time;durP1;ratioP1;P1;durP2;ratioP2;P2;SDS_P1;SDS_P2;PMS_P1;PMS_P2;Temp;Humidity;BMP_temperature;BMP_pressure;BME280_temperature;BME280_humidity;BME280_pressure;Samples;Min_cycle;Max_cycle;Signal;HPM_P1;HPM_P2
2021/01/02 00:00:26;;;;;;;291.53;81.10;;;-3.10;99.90;;;;;;4415226;28;659563;-66
2021/01/02 00:03:30;;;;;;;286.20;79.83;;;-3.10;99.90;;;;;;4389712;28;657496;-65
2021/01/02 00:06:20;;;;;;;290.93;81.03;;;-3.20;99.90;;;;;;4366774;28;658156;-64
2021/01/02 00:09:08;;;;;;;271.63;77.78;;;-3.30;99.90;;;;;;4392334;28;657627;-64
2021/01/02 00:12:12;;;;;;;262.10;73.67;;;-3.30;99.90;;;;;;4413048;28;657585;-66
2021/01/02 00:15:04;;;;;;;224.83;64.70;;;-3.40;99.90;;;;;;4360167;28;657769;-66
2021/01/02 00:18:08;;;;;;;212.43;63.70;;;-3.40;99.90;;;;;;4388324;28;658401;-66
2021/01/02 00:21:16;;;;;;;213.10;62.00;;;-3.40;99.90;;;;;;4364180;28;659020;-66
2021/01/02 00:24:31;;;;;;;218.00;61.57;;;-3.50;99.90;;;;;;4364812;28;657801;-64
2021/01/02 00:27:25;;;;;;;196.93;57.90;;;-3.50;99.90;;;;;;4372734;28;658099;-63
2021/01/02 00:30:17;;;;;;;194.37;60.00;;;-3.60;99.90;;;;;;4382803;28;657529;-64
2021/01/02 00:33:09;;;;;;;201.00;56.97;;;-3.60;99.90;;;;;;4384316;28;659237;-66
2021/01/02 00:36:00;;;;;;;193.87;56.53;;;-3.70;99.90;;;;;;4385755;28;658108;-66
2021/01/02 00:38:47;;;;;;;186.97;53.40;;;-3.70;99.90;;;;;;4378039;28;657412;-66
2021/01/02 00:41:34;;;;;;;179.80;52.73;;;-3.70;99.90;;;;;;4395932;28;657555;-66
2021/01/02 00:44:22;;;;;;;192.57;55.40;;;-3.70;99.90;;;;;;4414757;28;657981;-67
2021/01/02 00:47:11;;;;;;;181.73;54.77;;;-3.80;99.90;;;;;;4381407;28;658743;-66
2021/01/02 00:49:59;;;;;;;172.13;49.40;;;-3.90;99.90;;;;;;4396509;28;657450;-64
2021/01/02 00:53:18;;;;;;;164.87;47.83;;;-3.90;99.90;;;;;;4410224;28;658168;-66
2021/01/02 00:56:07;;;;;;;169.23;48.13;;;-4.00;99.90;;;;;;4353879;28;659125;-66
2021/01/02 00:59:30;;;;;;;156.33;46.03;;;-4.00;99.90;;;;;;4395197;28;658278;-68
2021/01/02 01:03:02;;;;;;;169.95;46.72;;;-4.00;99.90;;;;;;4391100;28;658120;-69
2021/01/02 01:05:49;;;;;;;138.83;42.17;;;-4.00;99.90;;;;;;4350442;28;659431;-68
2021/01/02 01:08:36;;;;;;;155.60;45.80;;;-4.10;99.90;;;;;;4415166;28;657658;-68
2021/01/02 01:11:23;;;;;;;178.63;48.60;;;-4.10;99.90;;;;;;4379857;28;657608;-68
2021/01/02 01:14:10;;;;;;;140.80;41.03;;;-4.10;99.90;;;;;;4414258;28;658819;-69
2021/01/02 01:17:00;;;;;;;159.53;46.33;;;-4.10;99.90;;;;;;4393276;28;657497;-66
2021/01/02 01:19:54;;;;;;;147.67;43.77;;;-4.10;99.90;;;;;;4401455;28;658268;-64
2021/01/02 01:22:42;;;;;;;148.33;44.40;;;-4.20;99.90;;;;;;4387091;28;659354;-69
2021/01/02 01:25:39;;;;;;;149.77;44.20;;;-4.20;99.90;;;;;;4387303;28;659548;-68
2021/01/02 01:28:26;;;;;;;171.67;44.50;;;-4.10;99.90;;;;;;4392942;28;657481;-69
2021/01/02 01:31:17;;;;;;;140.03;44.30;;;-4.10;99.90;;;;;;4390234;28;657706;-68
2021/01/02 01:34:05;;;;;;;128.03;38.27;;;-4.20;99.90;;;;;;4396198;28;658099;-68
2021/01/02 01:36:52;;;;;;;146.23;43.50;;;-4.20;99.90;;;;;;4410972;28;657145;-67
2021/01/02 01:39:39;;;;;;;140.13;40.70;;;-4.10;99.90;;;;;;4397286;28;658503;-66
2021/01/02 01:42:40;;;;;;;142.45;41.50;;;-4.10;99.90;;;;;;4417692;28;658832;-69
2021/01/02 01:46:11;;;;;;;135.00;38.57;;;-4.10;99.90;;;;;;4381898;28;657171;-64
2021/01/02 01:49:07;;;;;;;117.93;35.33;;;-4.10;99.90;;;;;;4398440;28;658366;-66
2021/01/02 01:51:57;;;;;;;108.50;33.08;;;-4.00;99.90;;;;;;4365023;28;659456;-66
2021/01/02 01:55:01;;;;;;;115.47;34.57;;;-4.00;99.90;;;;;;4386010;28;658568;-68
2021/01/02 01:57:48;;;;;;;110.53;33.67;;;-3.90;99.90;;;;;;4367609;28;657538;-67
2021/01/02 02:00:43;;;;;;;113.77;34.93;;;-3.80;99.90;;;;;;4417274;28;658910;-66
2021/01/02 02:03:34;;;;;;;107.77;33.83;;;-3.70;99.90;;;;;;4361898;28;657673;-66
2021/01/02 02:06:25;;;;;;;102.65;33.67;;;-3.50;99.90;;;;;;4379752;28;659683;-66
2021/01/02 02:09:19;;;;;;;96.23;30.33;;;-3.40;99.90;;;;;;4387538;28;657509;-64
2021/01/02 02:12:06;;;;;;;94.67;31.23;;;-3.30;99.90;;;;;;4389903;28;657690;-66
2021/01/02 02:15:07;;;;;;;105.63;31.00;;;-3.20;99.90;;;;;;4398979;28;656602;-66
2021/01/02 02:17:55;;;;;;;100.90;35.35;;;-3.00;99.90;;;;;;4368937;28;657941;-66
2021/01/02 02:20:43;;;;;;;108.07;35.10;;;-3.00;99.90;;;;;;4401993;28;658041;-64
2021/01/02 02:23:35;;;;;;;113.40;37.50;;;-3.00;99.90;;;;;;4401477;28;658626;-66
2021/01/02 02:26:27;;;;;;;115.57;37.60;;;-2.90;99.90;;;;;;4393983;28;659179;-66
2021/01/02 02:29:22;;;;;;;157.27;46.43;;;-2.90;99.90;;;;;;4391505;28;658114;-66
2021/01/02 02:32:09;;;;;;;184.77;57.00;;;-2.80;99.90;;;;;;4365587;28;658762;-66
2021/01/02 02:34:56;;;;;;;174.63;56.00;;;-2.80;99.90;;;;;;4409118;28;658664;-66
2021/01/02 02:37:45;;;;;;;197.43;57.13;;;-2.70;99.90;;;;;;4384699;28;657528;-66
2021/01/02 02:40:33;;;;;;;177.63;56.57;;;-2.70;99.90;;;;;;4416472;28;658061;-65
2021/01/02 02:43:21;;;;;;;169.20;54.40;;;-2.60;99.90;;;;;;4392135;28;658613;-66
2021/01/02 02:46:11;;;;;;;174.23;55.47;;;-2.50;99.90;;;;;;4390261;28;657683;-65
2021/01/02 02:49:00;;;;;;;176.13;54.43;;;-2.50;99.90;;;;;;4390294;28;657854;-66
2021/01/02 02:51:53;;;;;;;195.90;56.40;;;-2.40;99.90;;;;;;4408268;28;657119;-66
2021/01/02 02:54:40;;;;;;;183.23;57.27;;;-2.30;99.90;;;;;;4364155;28;659214;-67
2021/01/02 02:57:30;;;;;;;161.93;48.57;;;-2.20;99.90;;;;;;4412091;28;658004;-64
2021/01/02 03:00:17;;;;;;;150.93;49.40;;;-2.10;99.90;;;;;;4409894;28;658232;-67
2021/01/02 03:03:05;;;;;;;158.27;50.70;;;-2.10;99.90;;;;;;4393218;28;658897;-67
2021/01/02 03:05:53;;;;;;;145.07;45.60;;;-2.00;99.90;;;;;;4408978;28;658818;-64
2021/01/02 03:08:40;;;;;;;105.17;34.07;;;-2.00;99.90;;;;;;4420052;28;658966;-66
2021/01/02 03:11:28;;;;;;;134.80;42.80;;;-1.90;99.90;;;;;;4411982;28;657491;-65
2021/01/02 03:14:15;;;;;;;134.63;44.23;;;-1.70;99.90;;;;;;4419858;28;657663;-69
2021/01/02 03:17:03;;;;;;;121.40;37.83;;;-1.60;99.90;;;;;;4396910;28;659079;-64
2021/01/02 03:19:49;;;;;;;237.60;43.47;;;-1.60;99.90;;;;;;4412019;28;657303;-66
2021/01/02 03:22:41;;;;;;;106.07;35.90;;;-1.50;99.90;;;;;;4416365;28;658869;-67
2021/01/02 03:25:28;;;;;;;91.28;31.80;;;-1.40;99.90;;;;;;4366620;28;657916;-65
2021/01/02 03:28:14;;;;;;;103.07;36.53;;;-1.30;99.90;;;;;;4421395;28;656162;-66
2021/01/02 03:31:03;;;;;;;83.47;29.87;;;-1.30;99.90;;;;;;4412916;28;657573;-66
2021/01/02 03:33:50;;;;;;;79.23;29.10;;;-1.20;99.90;;;;;;4378293;28;657718;-66
2021/01/02 03:36:37;;;;;;;68.77;24.67;;;-1.20;99.90;;;;;;4416677;28;657677;-67
2021/01/02 03:39:24;;;;;;;76.72;30.13;;;-1.10;99.90;;;;;;4398223;28;656536;-66
2021/01/02 03:42:11;;;;;;;72.60;27.33;;;-1.00;99.90;;;;;;4415943;28;658334;-66
2021/01/02 03:44:58;;;;;;;65.07;25.33;;;-0.90;99.90;;;;;;4398386;28;657355;-66
2021/01/02 03:47:46;;;;;;;93.83;31.50;;;-0.90;99.90;;;;;;4407827;28;658055;-66
2021/01/02 03:50:33;;;;;;;113.90;39.17;;;-0.80;99.90;;;;;;4397508;28;656665;-66
2021/01/02 03:53:20;;;;;;;140.90;47.90;;;-0.80;99.90;;;;;;4414286;28;658113;-67
2021/01/02 03:56:07;;;;;;;158.53;53.40;;;-0.80;99.90;;;;;;4414344;28;657503;-64
2021/01/02 03:58:54;;;;;;;242.67;82.57;;;-0.80;99.90;;;;;;4400707;28;658206;-66
2021/01/02 04:01:41;;;;;;;242.63;86.13;;;-0.80;99.90;;;;;;4415455;28;658103;-67
2021/01/02 04:04:29;;;;;;;242.40;81.23;;;-0.80;99.90;;;;;;4396261;28;658014;-66
2021/01/02 04:07:16;;;;;;;221.90;71.77;;;-0.80;99.90;;;;;;4410463;28;658457;-67
2021/01/02 04:10:04;;;;;;;206.60;66.43;;;-0.80;99.90;;;;;;4396443;28;657578;-66
2021/01/02 04:12:51;;;;;;;185.17;62.97;;;-0.90;99.90;;;;;;4408916;28;659312;-67
2021/01/02 04:15:38;;;;;;;214.00;65.10;;;-0.90;99.90;;;;;;4396558;28;657309;-66
2021/01/02 04:18:25;;;;;;;195.47;65.27;;;-0.90;99.90;;;;;;4413993;28;658422;-66
2021/01/02 04:21:14;;;;;;;179.33;63.17;;;-0.90;99.90;;;;;;4415129;28;658268;-67
2021/01/02 04:24:01;;;;;;;158.87;55.17;;;-0.90;99.90;;;;;;4386846;28;657568;-66
2021/01/02 04:26:48;;;;;;;122.90;45.83;;;-0.80;99.90;;;;;;4391501;28;658384;-67
2021/01/02 04:29:35;;;;;;;155.93;53.87;;;-0.70;99.90;;;;;;4413175;28;658661;-66
2021/01/02 04:32:22;;;;;;;110.33;40.73;;;-0.70;99.90;;;;;;4400892;28;658371;-65
2021/01/02 04:35:10;;;;;;;147.60;52.37;;;-0.70;99.90;;;;;;4407073;28;658978;-67
2021/01/02 04:38:00;;;;;;;112.90;39.00;;;-0.60;99.90;;;;;;4414071;28;657716;-64
2021/01/02 04:40:47;;;;;;;71.10;26.37;;;-0.60;99.90;;;;;;4401852;28;658612;-64
2021/01/02 04:43:35;;;;;;;103.80;35.70;;;-0.50;99.90;;;;;;4415627;28;658404;-66
2021/01/02 04:46:22;;;;;;;81.50;30.73;;;-0.40;99.90;;;;;;4408251;28;658179;-67
2021/01/02 04:49:09;;;;;;;97.70;34.00;;;-0.40;99.90;;;;;;4396323;28;656477;-66
2021/01/02 04:52:00;;;;;;;103.55;40.33;;;-0.30;99.90;;;;;;4406608;28;658594;-66
2021/01/02 04:54:50;;;;;;;102.17;38.90;;;-0.30;99.90;;;;;;4390804;28;657362;-66
2021/01/02 04:57:38;;;;;;;91.87;36.13;;;-0.30;99.90;;;;;;4386026;28;658967;-66
2021/01/02 05:00:25;;;;;;;73.90;28.20;;;-0.40;99.90;;;;;;4397011;28;658304;-66
2021/01/02 05:03:12;;;;;;;71.90;26.97;;;-0.40;99.90;;;;;;4411710;28;656938;-66
2021/01/02 05:05:59;;;;;;;82.17;30.67;;;-0.40;99.90;;;;;;4396851;28;657314;-67
2021/01/02 05:08:46;;;;;;;72.93;28.27;;;-0.30;99.90;;;;;;4416002;28;657319;-67
2021/01/02 05:11:35;;;;;;;75.13;29.70;;;-0.30;99.90;;;;;;4395829;28;656630;-65
2021/01/02 05:14:23;;;;;;;76.78;31.05;;;-0.30;99.90;;;;;;4401689;28;656570;-64
2021/01/02 05:17:16;;;;;;;86.33;30.53;;;-0.30;99.90;;;;;;4412611;28;656298;-67
2021/01/02 05:20:13;;;;;;;66.17;26.07;;;-0.30;99.90;;;;;;4366703;28;657007;-66
2021/01/02 05:23:07;;;;;;;65.33;25.57;;;-0.30;99.90;;;;;;4370853;28;657179;-66
2021/01/02 05:25:56;;;;;;;59.53;23.73;;;-0.30;99.90;;;;;;4369942;28;658243;-66
2021/01/02 05:28:44;;;;;;;64.10;24.13;;;-0.20;99.90;;;;;;4396363;28;656601;-66
2021/01/02 05:31:31;;;;;;;56.60;23.27;;;-0.20;99.90;;;;;;4407669;28;656669;-66
2021/01/02 05:34:19;;;;;;;76.87;24.80;;;-0.20;99.90;;;;;;4396855;28;656998;-66
2021/01/02 05:37:06;;;;;;;59.07;22.20;;;-0.20;99.90;;;;;;4407947;28;657478;-67
2021/01/02 05:39:53;;;;;;;63.83;22.20;;;-0.10;99.90;;;;;;4393537;28;656840;-66
2021/01/02 05:42:40;;;;;;;60.97;22.50;;;-0.20;99.90;;;;;;4408301;28;658008;-66
2021/01/02 05:45:29;;;;;;;49.53;20.27;;;-0.10;99.90;;;;;;4393274;28;656807;-65
2021/01/02 05:48:20;;;;;;;58.00;21.90;;;-0.10;99.90;;;;;;4414865;28;657933;-67
2021/01/02 05:51:07;;;;;;;56.63;19.23;;;-0.10;99.90;;;;;;4369135;28;657076;-64
2021/01/02 05:54:07;;;;;;;53.27;20.13;;;-0.10;99.90;;;;;;4412687;28;656222;-66
2021/01/02 05:56:56;;;;;;;54.80;21.23;;;-0.10;99.90;;;;;;4388209;28;657111;-66
2021/01/02 05:59:43;;;;;;;54.03;21.03;;;-0.20;99.90;;;;;;4392419;28;656470;-66
2021/01/02 06:02:33;;;;;;;51.53;21.30;;;-0.20;99.90;;;;;;4414899;28;658183;-66
2021/01/02 06:05:19;;;;;;;71.95;28.90;;;-0.30;99.90;;;;;;4394108;28;658404;-66
2021/01/02 06:08:06;;;;;;;61.53;25.67;;;-0.30;99.90;;;;;;4418709;28;657338;-67
2021/01/02 06:10:54;;;;;;;60.17;23.07;;;-0.30;99.90;;;;;;4398644;28;657385;-66
2021/01/02 06:13:44;;;;;;;54.77;21.87;;;-0.30;99.90;;;;;;4418637;28;657903;-67
2021/01/02 06:16:31;;;;;;;52.03;22.17;;;-0.30;99.90;;;;;;4395923;28;656947;-66
2021/01/02 06:19:19;;;;;;;56.17;21.47;;;-0.40;99.90;;;;;;4394050;28;656546;-66
2021/01/02 06:22:06;;;;;;;52.53;20.00;;;-0.40;99.90;;;;;;4418409;28;657532;-66
2021/01/02 06:24:53;;;;;;;49.37;19.90;;;-0.40;99.90;;;;;;4398026;28;656447;-68
2021/01/02 06:27:40;;;;;;;48.30;19.70;;;-0.40;99.90;;;;;;4409661;28;658647;-67
2021/01/02 06:30:28;;;;;;;51.90;19.95;;;-0.50;99.90;;;;;;4402877;28;656802;-63
2021/01/02 06:33:17;;;;;;;48.77;19.00;;;-0.50;99.90;;;;;;4417457;28;657140;-67
2021/01/02 06:36:05;;;;;;;54.83;20.33;;;-0.50;99.90;;;;;;4395428;28;658298;-66
2021/01/02 06:39:17;;;;;;;56.00;19.17;;;-0.60;99.90;;;;;;4399164;28;656764;-65
2021/01/02 06:42:30;;;;;;;60.83;18.00;;;-0.60;99.90;;;;;;4366226;28;658030;-67
2021/01/02 06:45:36;;;;;;;49.50;18.13;;;-0.60;99.90;;;;;;4371431;28;657418;-64
2021/01/02 06:48:47;;;;;;;48.87;18.40;;;-0.60;99.90;;;;;;4375550;28;656877;-66
2021/01/02 06:51:35;;;;;;;77.20;27.33;;;-0.60;99.90;;;;;;4369886;28;657291;-66
2021/01/02 06:54:22;;;;;;;66.23;25.10;;;-0.60;99.90;;;;;;4417413;28;656418;-67
2021/01/02 06:57:09;;;;;;;65.03;24.07;;;-0.50;99.90;;;;;;4392987;28;657534;-66
2021/01/02 07:00:19;;;;;;;52.23;20.63;;;-0.50;99.90;;;;;;4410110;28;656694;-67
2021/01/02 07:03:06;;;;;;;49.38;18.73;;;-0.40;99.90;;;;;;4389649;28;657334;-67
2021/01/02 07:05:53;;;;;;;52.23;19.33;;;-0.40;99.90;;;;;;4398343;28;656759;-67
2021/01/02 07:08:41;;;;;;;69.78;24.38;;;-0.40;99.90;;;;;;4415805;28;657837;-66
2021/01/02 07:11:30;;;;;;;74.27;30.30;;;-0.30;99.90;;;;;;4398470;28;656650;-68
2021/01/02 07:14:27;;;;;;;66.87;28.97;;;-0.30;99.90;;;;;;4406709;28;657443;-64
2021/01/02 07:17:14;;;;;;;62.97;25.53;;;-0.30;99.90;;;;;;4374514;28;657125;-66
2021/01/02 07:20:05;;;;;;;66.97;24.87;;;-0.20;99.90;;;;;;4408379;28;656704;-67
2021/01/02 07:23:00;;;;;;;56.40;22.13;;;-0.10;99.90;;;;;;4389170;28;656938;-65
2021/01/02 07:25:48;;;;;;;58.17;21.90;;;0.00;99.90;;;;;;4376802;28;656880;-65
2021/01/02 07:28:35;;;;;;;63.30;21.20;;;0.00;99.90;;;;;;4400543;28;656593;-69
2021/01/02 07:31:23;;;;;;;75.07;23.50;;;0.10;99.90;;;;;;4403573;28;655767;-64
2021/01/02 07:34:21;;;;;;;65.15;22.05;;;0.10;99.90;;;;;;4412085;28;656201;-66
2021/01/02 07:37:09;;;;;;;51.43;18.93;;;0.20;99.90;;;;;;4370256;28;655548;-66
2021/01/02 07:39:57;;;;;;;54.43;20.83;;;0.30;99.90;;;;;;4418330;28;656084;-66
2021/01/02 07:42:50;;;;;;;57.77;19.17;;;0.40;99.90;;;;;;4373621;28;657995;-66
2021/01/02 07:45:37;;;;;;;62.03;20.57;;;0.50;99.90;;;;;;4395343;28;656088;-66
2021/01/02 07:48:24;;;;;;;58.90;21.20;;;0.50;99.90;;;;;;4417362;28;656326;-66
2021/01/02 07:51:16;;;;;;;61.50;26.07;;;0.60;99.90;;;;;;4400606;28;655395;-67
2021/01/02 07:54:03;;;;;;;55.53;24.03;;;0.60;99.90;;;;;;4375345;28;655436;-65
2021/01/02 07:56:50;;;;;;;50.77;20.57;;;0.70;99.90;;;;;;4409908;28;657038;-66
2021/01/02 07:59:39;;;;;;;57.27;20.87;;;0.80;99.90;;;;;;4409752;28;655516;-66
2021/01/02 08:02:27;;;;;;;59.63;22.17;;;0.70;99.90;;;;;;4402550;28;656962;-67
2021/01/02 08:05:14;;;;;;;53.85;23.60;;;0.80;99.90;;;;;;4398030;28;655839;-66
2021/01/02 08:08:02;;;;;;;63.40;25.73;;;0.80;99.90;;;;;;4411046;28;656224;-67
2021/01/02 08:10:52;;;;;;;71.63;28.60;;;0.90;99.90;;;;;;4398283;28;656235;-67
2021/01/02 08:13:39;;;;;;;78.83;29.87;;;0.90;99.90;;;;;;4388335;28;656971;-67
2021/01/02 08:16:27;;;;;;;63.40;26.10;;;0.90;99.90;;;;;;4409781;28;656220;-67
2021/01/02 08:19:14;;;;;;;59.60;25.57;;;1.00;99.90;;;;;;4386823;28;656165;-67
2021/01/02 08:22:02;;;;;;;59.00;24.43;;;1.00;99.90;;;;;;4413975;28;655306;-67
2021/01/02 08:24:49;;;;;;;51.77;21.27;;;1.00;99.90;;;;;;4396776;28;655442;-66
2021/01/02 08:27:36;;;;;;;51.30;21.77;;;1.10;99.90;;;;;;4410425;28;656163;-66
2021/01/02 08:30:23;;;;;;;46.00;20.03;;;1.20;99.90;;;;;;4393023;28;655549;-66
2021/01/02 08:33:12;;;;;;;39.53;16.50;;;1.30;99.90;;;;;;4407891;28;656616;-66
2021/01/02 08:35:58;;;;;;;43.78;17.55;;;1.20;99.90;;;;;;4397518;28;655748;-67
2021/01/02 08:38:46;;;;;;;37.87;17.77;;;1.30;99.90;;;;;;4404723;28;655965;-67
2021/01/02 08:41:33;;;;;;;40.20;15.45;;;1.40;99.90;;;;;;4398303;28;656774;-64
2021/01/02 08:44:25;;;;;;;33.65;14.30;;;1.40;99.90;;;;;;4403684;28;655246;-67
2021/01/02 08:47:12;;;;;;;40.57;15.63;;;1.50;99.90;;;;;;4385002;28;655582;-67
2021/01/02 08:50:09;;;;;;;33.20;15.37;;;1.50;99.90;;;;;;4395845;28;656205;-67
2021/01/02 08:52:56;;;;;;;34.03;15.63;;;1.50;99.90;;;;;;4390524;28;655792;-68
2021/01/02 08:55:43;;;;;;;42.90;17.30;;;1.60;99.90;;;;;;4389533;28;656004;-66
2021/01/02 08:58:31;;;;;;;37.00;14.47;;;1.70;99.90;;;;;;4411468;28;657371;-68
2021/01/02 09:01:18;;;;;;;37.37;14.77;;;1.80;99.90;;;;;;4389045;28;655578;-66
2021/01/02 09:04:11;;;;;;;36.13;15.17;;;1.90;99.90;;;;;;4420158;28;655185;-68
2021/01/02 09:07:03;;;;;;;36.87;15.70;;;1.90;99.90;;;;;;4367014;28;655230;-67
2021/01/02 09:09:50;;;;;;;45.27;18.30;;;1.90;99.90;;;;;;4397582;28;656782;-68
2021/01/02 09:12:37;;;;;;;50.47;21.97;;;2.00;99.90;;;;;;4409593;28;655488;-68
2021/01/02 09:15:38;;;;;;;52.23;21.30;;;2.10;99.90;;;;;;4397546;28;655480;-68
2021/01/02 09:18:39;;;;;;;58.70;24.40;;;2.20;99.90;;;;;;4381889;28;656132;-68
2021/01/02 09:21:27;;;;;;;57.63;24.67;;;2.40;99.90;;;;;;4379839;28;655522;-68
2021/01/02 09:24:22;;;;;;;55.23;23.63;;;2.50;99.90;;;;;;4389833;28;655486;-67
2021/01/02 09:27:09;;;;;;;134.57;43.80;;;2.60;99.90;;;;;;4364505;28;657334;-67
2021/01/02 09:29:56;;;;;;;267.17;68.50;;;2.70;99.90;;;;;;4415351;28;658320;-68
2021/01/02 09:32:43;;;;;;;201.90;56.07;;;2.80;99.90;;;;;;4396509;28;656457;-66
2021/01/02 09:35:30;;;;;;;101.82;35.25;;;2.90;99.90;;;;;;4418719;28;657136;-68
2021/01/02 09:38:17;;;;;;;67.07;27.40;;;3.10;99.90;;;;;;4413613;28;657099;-68
2021/01/02 09:41:05;;;;;;;62.07;25.87;;;3.50;99.90;;;;;;4386701;28;657431;-67
2021/01/02 09:43:54;;;;;;;75.53;30.50;;;3.70;99.90;;;;;;4412914;28;655506;-65
2021/01/02 09:46:40;;;;;;;80.07;36.17;;;4.50;99.90;;;;;;4418442;28;656138;-68
2021/01/02 09:49:28;;;;;;;74.63;35.07;;;5.50;99.90;;;;;;4397712;28;655732;-65
2021/01/02 09:52:15;;;;;;;72.07;35.03;;;6.00;99.90;;;;;;4421924;28;655687;-67
2021/01/02 09:55:02;;;;;;;82.17;41.47;;;7.00;99.90;;;;;;4413930;28;655736;-68
2021/01/02 09:57:50;;;;;;;69.87;30.33;;;8.00;99.90;;;;;;4377270;28;656114;-68
2021/01/02 10:00:37;;;;;;;59.80;27.03;;;8.50;99.90;;;;;;4397518;28;656035;-68
2021/01/02 10:03:24;;;;;;;65.30;27.33;;;8.80;99.90;;;;;;4379454;28;656029;-67
2021/01/02 10:06:11;;;;;;;57.30;26.00;;;8.40;99.90;;;;;;4401773;28;656840;-68
2021/01/02 10:08:58;;;;;;;62.87;27.03;;;8.20;99.90;;;;;;4383535;28;655568;-68
2021/01/02 10:11:45;;;;;;;48.57;21.13;;;7.90;99.90;;;;;;4398005;28;657313;-68
2021/01/02 10:14:33;;;;;;;37.70;17.57;;;7.50;99.90;;;;;;4407785;28;655234;-67
2021/01/02 10:17:20;;;;;;;56.83;20.47;;;7.10;99.90;;;;;;4370917;28;656916;-68
2021/01/02 10:20:08;;;;;;;48.37;19.63;;;6.70;99.70;;;;;;4402821;28;655791;-68
2021/01/02 10:22:55;;;;;;;49.27;20.87;;;6.30;99.90;;;;;;4380569;28;656869;-68
2021/01/02 10:25:42;;;;;;;47.27;19.30;;;5.90;99.90;;;;;;4405898;28;655559;-67
2021/01/02 10:28:29;;;;;;;46.07;17.43;;;5.70;99.90;;;;;;4386889;28;656586;-67
2021/01/02 10:31:20;;;;;;;31.30;14.20;;;5.50;99.90;;;;;;4395971;28;656625;-68
2021/01/02 10:34:08;;;;;;;41.90;16.93;;;5.40;99.90;;;;;;4375099;28;656063;-65
2021/01/02 10:36:54;;;;;;;49.37;20.60;;;5.50;99.90;;;;;;4408238;28;655577;-68
2021/01/02 10:39:42;;;;;;;70.17;27.23;;;5.50;99.90;;;;;;4400253;28;655712;-68
2021/01/02 10:42:29;;;;;;;97.40;33.60;;;5.70;99.90;;;;;;4385134;28;656072;-68
2021/01/02 10:45:17;;;;;;;83.97;31.30;;;5.80;99.90;;;;;;4402911;28;655708;-68
2021/01/02 10:48:06;;;;;;;81.57;30.23;;;5.90;99.90;;;;;;4377648;28;657369;-67
2021/01/02 10:50:53;;;;;;;85.87;29.17;;;5.90;99.90;;;;;;4384417;28;656216;-67
2021/01/02 10:53:40;;;;;;;99.83;34.03;;;5.90;99.90;;;;;;4405648;28;656452;-67
2021/01/02 10:56:27;;;;;;;88.83;32.80;;;5.80;99.90;;;;;;4413458;28;656220;-68
2021/01/02 10:59:14;;;;;;;86.43;32.30;;;5.80;99.90;;;;;;4391970;28;656386;-67
2021/01/02 11:02:01;;;;;;;75.03;29.17;;;6.10;99.90;;;;;;4418909;28;656494;-68
2021/01/02 11:04:50;;;;;;;54.43;23.53;;;6.60;99.90;;;;;;4392693;28;655700;-66
2021/01/02 11:07:37;;;;;;;45.40;21.52;;;7.80;99.90;;;;;;4404365;28;656017;-68
2021/01/02 11:10:24;;;;;;;40.37;18.10;;;9.10;96.70;;;;;;4392671;28;656429;-67
2021/01/02 11:13:11;;;;;;;37.43;17.40;;;9.70;86.20;;;;;;4415059;28;657363;-68
2021/01/02 11:15:57;;;;;;;43.50;18.27;;;10.30;81.80;;;;;;4389592;28;655405;-65
2021/01/02 11:18:44;;;;;;;56.83;25.90;;;10.50;77.20;;;;;;4415563;28;656242;-67
2021/01/02 11:21:32;;;;;;;45.23;20.83;;;10.10;73.80;;;;;;4406547;28;657152;-68
2021/01/02 11:24:21;;;;;;;45.57;18.47;;;10.30;76.10;;;;;;4388132;28;658093;-68
2021/01/02 11:27:08;;;;;;;32.13;13.60;;;10.30;73.10;;;;;;4395627;28;656818;-65
2021/01/02 11:29:55;;;;;;;28.97;12.93;;;10.30;72.90;;;;;;4411770;28;656113;-68
2021/01/02 11:32:42;;;;;;;31.00;14.03;;;10.50;71.80;;;;;;4409417;28;656678;-68
2021/01/02 11:35:29;;;;;;;39.30;17.00;;;10.30;70.30;;;;;;4396133;28;656369;-67
2021/01/02 11:38:16;;;;;;;34.80;15.77;;;10.30;71.40;;;;;;4414764;28;657667;-67
2021/01/02 11:41:03;;;;;;;29.80;13.40;;;10.20;71.00;;;;;;4395567;28;656982;-66
2021/01/02 11:43:50;;;;;;;32.70;14.27;;;9.90;71.70;;;;;;4404293;28;657567;-66
2021/01/02 11:46:39;;;;;;;35.28;14.13;;;9.60;71.60;;;;;;4402000;28;655512;-65
2021/01/02 11:49:28;;;;;;;51.73;19.43;;;9.60;73.50;;;;;;4416662;28;657404;-67
2021/01/02 11:52:15;;;;;;;34.67;14.30;;;10.60;71.30;;;;;;4394578;28;656943;-68
2021/01/02 11:55:04;;;;;;;32.20;13.33;;;11.80;66.60;;;;;;4412553;28;656637;-66
2021/01/02 11:57:51;;;;;;;35.43;16.43;;;13.10;65.00;;;;;;4416745;28;656787;-68
2021/01/02 12:00:38;;;;;;;43.03;17.43;;;12.70;60.90;;;;;;4381660;28;656547;-68
2021/01/02 12:03:25;;;;;;;46.93;19.33;;;12.60;60.90;;;;;;4397027;28;656548;-68
2021/01/02 12:06:13;;;;;;;28.30;12.90;;;12.00;62.60;;;;;;4402165;28;656908;-65
2021/01/02 12:09:00;;;;;;;31.15;12.45;;;11.20;62.60;;;;;;4420488;28;657263;-67
2021/01/02 12:11:48;;;;;;;23.17;10.82;;;10.50;65.80;;;;;;4416055;28;656960;-68
2021/01/02 12:14:35;;;;;;;20.23;9.93;;;10.10;65.80;;;;;;4396823;28;658049;-68
2021/01/02 12:17:22;;;;;;;20.00;9.70;;;9.90;68.70;;;;;;4416966;28;655991;-67
2021/01/02 12:20:09;;;;;;;20.97;10.53;;;9.60;68.80;;;;;;4397308;28;655257;-67
2021/01/02 12:22:56;;;;;;;25.80;11.63;;;9.20;71.20;;;;;;4417409;28;655521;-68
2021/01/02 12:25:43;;;;;;;26.60;12.77;;;8.80;71.10;;;;;;4398265;28;655527;-68
2021/01/02 12:28:31;;;;;;;28.90;11.63;;;8.60;72.10;;;;;;4420855;28;654894;-67
2021/01/02 12:31:19;;;;;;;33.60;14.70;;;8.60;74.60;;;;;;4398233;28;656838;-67
2021/01/02 12:34:06;;;;;;;38.20;16.10;;;8.50;74.50;;;;;;4416453;28;655865;-70
2021/01/02 12:36:53;;;;;;;35.83;15.97;;;8.50;75.20;;;;;;4394911;28;656067;-68
2021/01/02 12:39:40;;;;;;;45.33;18.10;;;8.30;78.30;;;;;;4411786;28;656316;-67
2021/01/02 12:42:28;;;;;;;45.97;18.30;;;8.00;78.70;;;;;;4402584;28;655633;-64
2021/01/02 12:45:16;;;;;;;37.73;15.67;;;7.90;82.40;;;;;;4421654;28;655082;-67
2021/01/02 12:48:03;;;;;;;38.37;15.60;;;7.70;83.50;;;;;;4398418;28;656433;-67
2021/01/02 12:50:53;;;;;;;36.67;15.93;;;7.60;82.10;;;;;;4420976;28;656810;-67
2021/01/02 12:53:40;;;;;;;40.33;17.30;;;7.40;85.90;;;;;;4393066;28;657092;-67
2021/01/02 12:56:27;;;;;;;35.53;14.83;;;7.40;85.30;;;;;;4427760;28;655749;-67
2021/01/02 12:59:17;;;;;;;32.57;14.50;;;7.20;85.20;;;;;;4416888;28;655739;-67
2021/01/02 13:02:06;;;;;;;33.17;14.50;;;7.20;85.80;;;;;;4416311;28;656356;-67
2021/01/02 13:04:53;;;;;;;36.97;14.77;;;7.10;88.40;;;;;;4414910;28;656788;-67
2021/01/02 13:07:40;;;;;;;36.70;14.37;;;6.90;90.70;;;;;;4437430;28;656400;-67
2021/01/02 13:10:28;;;;;;;35.25;15.13;;;6.80;92.60;;;;;;4419713;28;655435;-65
2021/01/02 13:13:17;;;;;;;40.00;19.07;;;6.80;92.20;;;;;;4412719;28;655002;-67
2021/01/02 13:16:04;;;;;;;54.03;20.77;;;6.70;94.20;;;;;;4392103;28;655308;-66
2021/01/02 13:18:52;;;;;;;59.53;22.57;;;6.70;98.30;;;;;;4407105;28;655697;-67
2021/01/02 13:21:45;;;;;;;48.23;20.33;;;6.80;99.10;;;;;;4386495;28;656348;-67
2021/01/02 13:24:32;;;;;;;48.83;20.47;;;6.80;97.00;;;;;;4383036;28;655710;-67
2021/01/02 13:27:19;;;;;;;36.13;15.17;;;6.80;96.40;;;;;;4395226;28;656832;-66
2021/01/02 13:30:07;;;;;;;37.40;14.90;;;7.20;94.50;;;;;;4414119;28;655767;-69
2021/01/02 13:32:56;;;;;;;41.40;15.63;;;8.10;97.30;;;;;;4392057;28;657437;-67
2021/01/02 13:35:44;;;;;;;42.25;16.45;;;9.50;83.10;;;;;;4385896;28;655754;-65
2021/01/02 13:38:31;;;;;;;53.60;20.13;;;9.80;78.70;;;;;;4406678;28;656811;-67
2021/01/02 13:41:24;;;;;;;47.80;18.30;;;9.60;75.60;;;;;;4392256;28;655499;-64
2021/01/02 13:44:12;;;;;;;47.33;17.90;;;9.20;76.10;;;;;;4387769;28;655782;-67
2021/01/02 13:46:59;;;;;;;54.70;18.80;;;8.90;77.20;;;;;;4392844;28;655928;-67
2021/01/02 13:49:47;;;;;;;41.73;16.33;;;8.60;77.50;;;;;;4405069;28;656840;-67
2021/01/02 13:52:34;;;;;;;52.23;18.57;;;8.40;78.70;;;;;;4390855;28;656595;-67
2021/01/02 13:55:21;;;;;;;52.83;18.63;;;8.00;80.20;;;;;;4411244;28;656323;-67
2021/01/02 13:58:08;;;;;;;56.90;19.53;;;7.70;82.30;;;;;;4393985;28;655767;-66
2021/01/02 14:00:56;;;;;;;47.33;16.60;;;7.50;82.90;;;;;;4420974;28;656499;-67
2021/01/02 14:03:43;;;;;;;48.83;18.40;;;7.10;84.50;;;;;;4374090;28;655658;-64
2021/01/02 14:06:30;;;;;;;52.10;18.33;;;6.90;87.00;;;;;;4410275;28;655018;-67
2021/01/02 14:09:18;;;;;;;49.28;19.88;;;6.60;90.70;;;;;;4411399;28;657025;-68